createdAt,value
2023-02-03T00:01:27.781Z,0.82
2023-02-03T00:04:08.976Z,0.81
2023-02-03T00:06:50.781Z,0.82
2023-02-03T00:09:39.768Z,0.80
2023-02-03T00:12:20.808Z,0.77
2023-02-03T00:15:10.137Z,0.74
2023-02-03T00:18:04.846Z,0.71
2023-02-03T00:20:59.784Z,0.72
2023-02-03T00:23:48.811Z,0.74
2023-02-03T00:26:32.753Z,0.73
2023-02-03T00:29:31.750Z,0.74
2023-02-03T00:32:20.253Z,0.74
2023-02-03T00:34:55.888Z,0.78
2023-02-03T00:37:43.755Z,0.81
2023-02-03T00:40:26.021Z,0.81
2023-02-03T00:43:20.804Z,0.79
2023-02-03T00:46:08.971Z,0.77
2023-02-03T00:48:45.002Z,0.78
2023-02-03T00:51:33.011Z,0.80
2023-02-03T00:54:07.896Z,0.81
2023-02-03T00:56:57.036Z,0.77
2023-02-03T00:59:39.076Z,0.73
2023-02-03T01:02:20.986Z,0.70
2023-02-03T01:05:02.932Z,0.70
2023-02-03T01:07:44.821Z,0.70
2023-02-03T01:10:27.220Z,0.70
2023-02-03T01:13:10.752Z,0.68
2023-02-03T01:16:05.955Z,0.67
2023-02-03T01:18:54.754Z,0.65
2023-02-03T01:21:31.951Z,0.66
2023-02-03T01:24:21.732Z,0.67
2023-02-03T01:26:56.086Z,0.66
2023-02-03T01:32:47.755Z,0.62
2023-02-03T01:35:42.756Z,0.59
2023-02-03T01:38:30.795Z,0.59
2023-02-03T01:41:05.934Z,0.62
2023-02-03T01:43:56.835Z,0.61
2023-02-03T01:46:43.740Z,0.60
2023-02-03T01:49:42.724Z,0.57
2023-02-03T01:52:30.748Z,0.57
2023-02-03T01:55:07.870Z,0.57
2023-02-03T01:58:02.750Z,0.57
2023-02-03T02:00:37.879Z,0.61
2023-02-03T02:03:27.728Z,0.64
2023-02-03T02:06:16.744Z,0.66
2023-02-03T02:09:12.735Z,0.66
2023-02-03T02:12:00.746Z,0.65
2023-02-03T02:14:42.733Z,0.64
2023-02-03T02:17:52.718Z,0.61
2023-02-03T02:21:16.849Z,0.60
2023-02-03T02:24:20.748Z,0.56
2023-02-03T02:27:17.802Z,0.51
2023-02-03T02:30:37.767Z,0.47
2023-02-03T02:34:10.727Z,0.46
2023-02-03T02:37:39.753Z,0.46
2023-02-03T02:40:26.166Z,0.46
2023-02-03T02:43:27.740Z,0.46
2023-02-03T02:46:21.895Z,0.43
2023-02-03T02:49:40.785Z,0.40
2023-02-03T02:52:23.907Z,0.36
2023-02-03T02:55:09.845Z,0.34
2023-02-03T02:57:51.855Z,0.33
2023-02-03T03:00:32.767Z,0.33
2023-02-03T03:03:20.001Z,0.34
2023-02-03T03:06:06.795Z,0.34
2023-02-03T03:08:50.949Z,0.38
2023-02-03T03:11:33.730Z,0.43
2023-02-03T03:14:16.885Z,0.46
2023-02-03T03:17:01.728Z,0.49
2023-02-03T03:19:53.781Z,0.50
2023-02-03T03:22:34.859Z,0.49
2023-02-03T03:25:28.835Z,0.48
2023-02-03T03:28:09.041Z,0.46
2023-02-03T03:30:57.850Z,0.44
2023-02-03T03:33:33.166Z,0.45
2023-02-03T03:36:33.826Z,0.42
2023-02-03T03:39:14.676Z,0.40
2023-02-03T03:42:18.809Z,0.39
2023-02-03T03:44:54.766Z,0.38
2023-02-03T03:47:53.768Z,0.38
2023-02-03T03:50:35.966Z,0.40
2023-02-03T03:53:24.718Z,0.41
2023-02-03T03:56:07.756Z,0.40
2023-02-03T03:58:51.840Z,0.32
2023-02-03T04:01:32.864Z,0.26
2023-02-03T04:04:16.905Z,0.21
2023-02-03T04:07:00.750Z,0.20
2023-02-03T04:09:43.134Z,0.18
2023-02-03T04:12:30.702Z,0.13
2023-02-03T04:15:18.713Z,0.08
2023-02-03T04:17:54.729Z,0.01
2023-02-03T04:20:44.761Z,-0.09
2023-02-03T04:23:25.703Z,-0.21
2023-02-03T04:26:07.824Z,-0.32
2023-02-03T04:28:48.714Z,-0.41
2023-02-03T04:31:36.717Z,-0.50
2023-02-03T04:34:11.168Z,-0.53
2023-02-03T04:36:58.796Z,-0.51
2023-02-03T04:39:53.704Z,-0.49
2023-02-03T04:42:44.707Z,-0.49
2023-02-03T04:45:26.828Z,-0.52
2023-02-03T04:48:21.805Z,-0.57
2023-02-03T04:51:10.693Z,-0.61
2023-02-03T04:53:51.738Z,-0.70
2023-02-03T04:56:33.124Z,-0.76
2023-02-03T04:59:21.682Z,-0.80
2023-02-03T05:01:56.197Z,-0.88
2023-02-03T05:04:44.744Z,-0.98
2023-02-03T05:07:20.203Z,-1.04
2023-02-03T05:10:07.714Z,-1.08
2023-02-03T05:13:02.717Z,-1.08
2023-02-03T05:15:57.719Z,-1.04
2023-02-03T05:18:52.722Z,-0.97
2023-02-03T05:21:47.826Z,-0.88
2023-02-03T05:24:35.762Z,-0.83
2023-02-03T05:27:10.898Z,-0.81
2023-02-03T05:29:58.736Z,-0.81
2023-02-03T05:32:40.730Z,-0.78
2023-02-03T05:35:35.694Z,-0.78
2023-02-03T05:38:23.672Z,-0.76
2023-02-03T05:41:23.790Z,-0.71
2023-02-03T05:44:18.697Z,-0.65
2023-02-03T05:47:06.735Z,-0.61
2023-02-03T05:49:48.729Z,-0.62
2023-02-03T05:52:43.734Z,-0.65
2023-02-03T05:55:31.767Z,-0.72
2023-02-03T05:58:06.925Z,-0.80
2023-02-03T06:00:54.738Z,-0.84
2023-02-03T06:03:29.944Z,-0.88
2023-02-03T06:06:17.708Z,-0.93
2023-02-03T06:08:58.799Z,-0.96
2023-02-03T06:11:40.681Z,-1.03
2023-02-03T06:14:21.858Z,-1.12
2023-02-03T06:17:02.773Z,-1.18
2023-02-03T06:19:50.697Z,-1.20
2023-02-03T06:22:25.189Z,-1.24
2023-02-03T06:25:13.247Z,-1.30
2023-02-03T06:27:48.106Z,-1.32
2023-02-03T06:30:35.696Z,-1.36
2023-02-03T06:33:10.105Z,-1.36
2023-02-03T06:35:57.735Z,-1.34
2023-02-03T06:38:32.154Z,-1.29
2023-02-03T06:41:19.664Z,-1.26
2023-02-03T06:44:00.759Z,-1.24
2023-02-03T06:46:41.808Z,-1.25
2023-02-03T06:49:23.665Z,-1.26
2023-02-03T06:52:04.908Z,-1.26
2023-02-03T06:54:46.706Z,-1.26
2023-02-03T06:57:27.876Z,-1.20
2023-02-03T07:00:08.667Z,-1.14
2023-02-03T07:02:50.889Z,-1.11
2023-02-03T07:05:31.670Z,-1.11
2023-02-03T07:08:12.849Z,-1.12
2023-02-03T07:10:53.767Z,-1.12
2023-02-03T07:13:34.848Z,-1.10
2023-02-03T07:16:15.759Z,-1.06
2023-02-03T07:19:10.674Z,-1.03
2023-02-03T07:21:58.754Z,-0.98
2023-02-03T07:24:33.891Z,-0.94
2023-02-03T07:27:21.868Z,-0.88
2023-02-03T07:30:03.724Z,-0.78
2023-02-03T07:33:02.718Z,-0.64
2023-02-03T07:35:50.756Z,-0.50
2023-02-03T07:38:25.786Z,-0.39
2023-02-03T07:41:13.646Z,-0.23
2023-02-03T07:43:47.847Z,-0.14
2023-02-03T07:46:35.732Z,-0.03
2023-02-03T07:49:10.820Z,0.09
2023-02-03T07:51:58.654Z,0.20
2023-02-03T07:54:39.728Z,0.26
2023-02-03T07:57:34.637Z,0.37
2023-02-03T08:00:23.651Z,0.45
2023-02-03T08:02:58.825Z,0.54
2023-02-03T08:05:46.658Z,0.60
2023-02-03T08:08:20.870Z,0.63
2023-02-03T08:11:10.954Z,0.67
2023-02-03T08:13:52.649Z,0.67
2023-02-03T08:16:47.748Z,0.67
2023-02-03T08:19:35.690Z,0.63
2023-02-03T08:22:16.254Z,0.57
2023-02-03T08:25:03.679Z,0.55
2023-02-03T08:27:42.952Z,0.60
2023-02-03T08:30:31.903Z,0.65
2023-02-03T08:33:06.836Z,0.72
2023-02-03T08:35:55.763Z,0.79
2023-02-03T08:38:30.895Z,0.92
2023-02-03T08:41:20.780Z,1.04
2023-02-03T08:44:02.777Z,1.14
2023-02-03T08:46:50.721Z,1.32
2023-02-03T08:49:25.850Z,1.58
2023-02-03T08:52:15.127Z,1.74
2023-02-03T08:54:50.872Z,1.97
2023-02-03T08:57:40.697Z,2.29
2023-02-03T09:00:16.831Z,2.60
2023-02-03T09:03:04.760Z,2.90
2023-02-03T09:05:45.922Z,3.01
2023-02-03T09:08:27.819Z,3.12
2023-02-03T09:11:15.711Z,3.21
2023-02-03T09:13:50.491Z,3.33
2023-02-03T09:16:39.819Z,3.48
2023-02-03T09:19:36.432Z,3.59
2023-02-03T09:22:31.705Z,3.71
2023-02-03T09:25:20.692Z,3.85
2023-02-03T09:28:02.828Z,3.93
2023-02-03T09:30:57.775Z,3.94
2023-02-03T09:33:46.722Z,3.89
2023-02-03T09:36:21.902Z,3.88
2023-02-03T09:39:10.686Z,3.94
2023-02-03T09:42:19.756Z,3.95
2023-02-03T09:45:28.795Z,4.00
2023-02-03T09:48:22.715Z,4.06
2023-02-03T09:51:17.687Z,4.12
2023-02-03T09:54:10.694Z,4.15
2023-02-03T09:56:52.708Z,4.16
2023-02-03T09:59:41.683Z,4.18
2023-02-03T10:02:47.796Z,4.25
2023-02-03T10:06:03.727Z,4.31
2023-02-03T10:09:03.687Z,4.35
2023-02-03T10:12:00.705Z,4.44
2023-02-03T10:14:53.826Z,4.53
2023-02-03T10:17:50.692Z,4.62
2023-02-03T10:20:41.840Z,4.79
2023-02-03T10:23:35.682Z,4.96
2023-02-03T10:26:19.694Z,5.08
2023-02-03T10:29:15.754Z,5.15
2023-02-03T10:31:50.983Z,5.17
2023-02-03T10:34:38.729Z,5.12
2023-02-03T10:37:45.981Z,4.96
2023-02-03T10:40:35.858Z,4.57
2023-02-03T10:43:29.251Z,4.15
2023-02-03T10:46:16.742Z,3.81
2023-02-03T10:48:58.708Z,3.55
2023-02-03T10:51:51.437Z,3.31
2023-02-03T10:54:42.753Z,3.17
2023-02-03T10:57:17.182Z,3.02
2023-02-03T11:00:04.797Z,2.94
2023-02-03T11:02:40.214Z,2.88
2023-02-03T11:05:35.772Z,2.80
2023-02-03T11:08:23.692Z,2.72
2023-02-03T11:11:29.343Z,2.56
2023-02-03T11:14:10.725Z,2.33
2023-02-03T11:17:06.687Z,2.12
2023-02-03T11:19:55.716Z,2.00
2023-02-03T11:22:43.125Z,1.97
2023-02-03T11:25:36.687Z,1.96
2023-02-03T11:28:12.893Z,1.91
2023-02-03T11:31:05.763Z,1.82
2023-02-03T11:33:47.909Z,1.72
2023-02-03T11:36:38.666Z,1.61
2023-02-03T11:39:20.829Z,1.58
2023-02-03T11:42:08.760Z,1.58
2023-02-03T11:44:43.897Z,1.56
2023-02-03T11:47:31.733Z,1.52
2023-02-03T11:50:17.763Z,1.48
2023-02-03T11:53:05.746Z,1.60
2023-02-03T11:55:47.766Z,1.76
2023-02-03T11:59:22.697Z,1.90
2023-02-03T12:02:05.763Z,2.04
2023-02-03T12:05:03.895Z,2.13
2023-02-03T12:07:41.806Z,2.18
2023-02-03T12:10:50.867Z,2.20
2023-02-03T12:14:06.802Z,2.22
2023-02-03T12:17:02.751Z,2.25
2023-02-03T12:20:07.729Z,2.35
2023-02-03T12:23:33.710Z,2.45
2023-02-03T12:26:26.872Z,2.49
2023-02-03T12:29:13.676Z,2.49
2023-02-03T12:32:03.296Z,2.48
2023-02-03T12:34:48.648Z,2.44
2023-02-03T12:37:37.797Z,2.39
2023-02-03T12:40:25.920Z,2.35
2023-02-03T12:43:19.197Z,2.32
2023-02-03T12:46:24.647Z,2.32
2023-02-03T12:49:17.911Z,2.31
2023-02-03T12:52:11.991Z,2.31
2023-02-03T12:55:22.570Z,2.31
2023-02-03T12:58:08.038Z,2.30
2023-02-03T13:00:58.803Z,2.26
2023-02-03T13:03:46.863Z,2.24
2023-02-03T13:06:54.798Z,2.23
2023-02-03T13:09:54.664Z,2.21
2023-02-03T13:12:56.776Z,2.17
2023-02-03T13:15:42.876Z,2.12
2023-02-03T13:18:45.641Z,2.07
2023-02-03T13:21:40.748Z,2.00
2023-02-03T13:24:32.785Z,1.95
2023-02-03T13:27:14.979Z,1.93
2023-02-03T13:30:18.793Z,1.91
2023-02-03T13:33:37.842Z,1.87
2023-02-03T13:37:05.677Z,1.81
2023-02-03T13:40:18.666Z,1.77
2023-02-03T13:43:00.876Z,1.75
2023-02-03T13:45:52.787Z,1.72
2023-02-03T13:48:31.114Z,1.70
2023-02-03T13:51:25.649Z,1.70
2023-02-03T13:54:08.001Z,1.67
2023-02-03T13:57:06.644Z,1.65
2023-02-03T13:59:43.786Z,1.65
2023-02-03T14:02:31.654Z,1.68
2023-02-03T14:05:38.487Z,1.68
2023-02-03T14:08:34.820Z,1.66
2023-02-03T14:11:42.648Z,1.65
2023-02-03T14:14:23.655Z,1.62
2023-02-03T14:17:12.096Z,1.57
2023-02-03T14:20:08.740Z,1.55
2023-02-03T14:22:56.697Z,1.55
2023-02-03T14:25:32.789Z,1.56
2023-02-03T14:28:36.792Z,1.55
2023-02-03T14:31:17.788Z,1.52
2023-02-03T14:34:14.815Z,1.44
2023-02-03T14:36:59.721Z,1.41
2023-02-03T14:40:16.718Z,1.39
2023-02-03T14:43:42.957Z,1.36
2023-02-03T14:47:03.839Z,1.36
2023-02-03T14:50:06.836Z,1.35
2023-02-03T14:53:07.058Z,1.32
2023-02-03T14:56:32.692Z,1.31
2023-02-03T14:59:16.595Z,1.32
2023-02-03T15:02:00.739Z,1.31
2023-02-03T15:04:50.047Z,1.30
2023-02-03T15:07:43.203Z,1.28
2023-02-03T15:10:37.616Z,1.30
2023-02-03T15:13:35.741Z,1.31
2023-02-03T15:16:29.732Z,1.32
2023-02-03T15:19:09.884Z,1.33
2023-02-03T15:22:01.581Z,1.32
2023-02-03T15:24:37.502Z,1.28
2023-02-03T15:27:42.648Z,1.26
2023-02-03T15:30:24.701Z,1.26
2023-02-03T15:33:23.817Z,1.25
2023-02-03T15:36:26.191Z,1.23
2023-02-03T15:39:16.757Z,1.11
2023-02-03T15:42:05.842Z,0.93
2023-02-03T15:44:50.738Z,0.77
2023-02-03T15:47:44.631Z,0.64
2023-02-03T15:50:45.323Z,0.56
2023-02-03T15:53:57.575Z,0.54
2023-02-03T15:56:49.823Z,0.54
2023-02-03T16:00:06.704Z,0.55
2023-02-03T16:03:04.668Z,0.55
2023-02-03T16:05:56.201Z,0.56
2023-02-03T16:08:49.610Z,0.59
2023-02-03T16:11:45.761Z,0.64
2023-02-03T16:14:46.816Z,0.70
2023-02-03T16:17:45.699Z,0.71
2023-02-03T16:20:35.599Z,0.77
2023-02-03T16:23:36.140Z,0.86
2023-02-03T16:26:33.616Z,0.93
2023-02-03T16:29:40.760Z,1.00
2023-02-03T16:32:44.466Z,1.07
2023-02-03T16:35:52.783Z,1.19
2023-02-03T16:38:53.759Z,1.27
2023-02-03T16:42:00.984Z,1.35
2023-02-03T16:44:54.890Z,1.42
2023-02-03T16:48:04.649Z,1.50
2023-02-03T16:51:01.690Z,1.56
2023-02-03T16:53:58.879Z,1.60
2023-02-03T16:56:48.729Z,1.64
2023-02-03T16:59:25.070Z,1.69
2023-02-03T17:02:12.737Z,1.73
2023-02-03T17:04:54.713Z,1.75
2023-02-03T17:07:51.293Z,1.77
2023-02-03T17:10:44.591Z,1.82
2023-02-03T17:13:28.581Z,1.90
2023-02-03T17:16:20.683Z,1.95
2023-02-03T17:19:07.476Z,1.99
2023-02-03T17:21:56.586Z,2.04
2023-02-03T17:24:38.669Z,2.11
2023-02-03T17:27:26.603Z,2.17
2023-02-03T17:30:08.614Z,2.22
2023-02-03T17:32:50.122Z,2.27
2023-02-03T17:35:37.821Z,2.34
2023-02-03T17:38:21.642Z,2.40
2023-02-03T17:55:50.027Z,2.56
2023-02-03T17:58:39.685Z,2.57
2023-02-03T18:01:18.473Z,2.59
2023-02-03T18:04:09.814Z,2.62
2023-02-03T18:06:44.259Z,2.66
2023-02-03T18:09:32.568Z,2.67
2023-02-03T18:12:09.406Z,2.68
2023-02-03T18:14:58.576Z,2.74
2023-02-03T18:17:53.635Z,2.78
2023-02-03T18:20:48.632Z,2.82
2023-02-03T18:23:40.868Z,2.84
2023-02-03T18:26:17.734Z,2.84
2023-02-03T18:29:07.802Z,2.87
2023-02-03T18:31:48.127Z,2.90
2023-02-03T18:34:36.545Z,2.93
2023-02-03T18:37:11.811Z,2.94
2023-02-03T18:39:59.605Z,2.96
2023-02-03T18:42:41.805Z,3.01
2023-02-03T18:45:36.544Z,3.05
2023-02-03T18:48:32.590Z,3.05
2023-02-03T18:51:24.576Z,3.04
2023-02-03T18:54:10.595Z,3.00
2023-02-03T18:56:59.546Z,2.99
2023-02-03T18:59:42.782Z,2.97
2023-02-03T19:02:26.128Z,2.92
2023-02-03T19:05:14.629Z,2.91
2023-02-03T19:07:55.600Z,2.90
2023-02-03T19:10:43.537Z,2.92
2023-02-03T19:13:19.791Z,2.95
2023-02-03T19:16:08.606Z,2.93
2023-02-03T19:18:51.591Z,2.90
2023-02-03T19:21:32.772Z,2.86
2023-02-03T19:24:14.666Z,2.83
2023-02-03T19:27:02.807Z,2.82
2023-02-03T19:29:39.957Z,2.80
2023-02-03T19:32:27.787Z,2.76
2023-02-03T19:35:03.178Z,2.70
2023-02-03T19:37:53.574Z,2.65
2023-02-03T19:40:36.653Z,2.65
2023-02-03T19:43:18.766Z,2.64
2023-02-03T19:46:01.789Z,2.64
2023-02-03T19:48:52.948Z,2.63
2023-02-03T19:51:28.833Z,2.64
2023-02-03T19:54:21.216Z,2.67
2023-02-03T19:57:04.660Z,2.66
2023-02-03T19:59:47.732Z,2.65
2023-02-03T20:02:37.557Z,2.64
2023-02-03T20:05:13.051Z,2.66
2023-02-03T20:08:02.750Z,2.68
2023-02-03T20:10:39.665Z,2.70
2023-02-03T20:13:27.754Z,2.72
2023-02-03T20:16:03.517Z,2.72
2023-02-03T20:19:00.567Z,2.76
2023-02-03T20:21:57.559Z,2.80
2023-02-03T20:24:52.769Z,2.82
2023-02-03T20:27:43.012Z,2.82
2023-02-03T20:30:26.541Z,2.83
2023-02-03T20:33:23.546Z,2.86
2023-02-03T20:36:14.866Z,2.88
2023-02-03T20:38:49.880Z,2.87
2023-02-03T20:41:42.006Z,2.88
2023-02-03T20:44:20.886Z,2.90
2023-02-03T20:47:10.555Z,2.96
2023-02-03T20:49:56.753Z,2.99
2023-02-03T20:52:39.517Z,2.98
2023-02-03T20:55:31.567Z,2.97
2023-02-03T20:58:25.926Z,2.95
2023-02-03T21:01:14.672Z,2.96
2023-02-03T21:04:08.074Z,2.97
2023-02-03T21:06:56.761Z,2.95
2023-02-03T21:09:32.497Z,2.93
2023-02-03T21:12:27.543Z,2.93
2023-02-03T21:15:03.125Z,2.91
2023-02-03T21:17:50.572Z,2.90
2023-02-03T21:20:46.915Z,2.86
2023-02-03T21:23:55.978Z,2.80
2023-02-03T21:26:43.741Z,2.79
2023-02-03T21:29:42.316Z,2.80
2023-02-03T21:32:43.575Z,2.80
2023-02-03T21:35:46.548Z,2.78
2023-02-03T21:38:44.939Z,2.74
2023-02-03T21:41:35.536Z,2.73
2023-02-03T21:44:38.409Z,2.71
2023-02-03T21:47:27.308Z,2.68
2023-02-03T21:50:06.930Z,2.65
2023-02-03T21:52:54.570Z,2.62
2023-02-03T21:55:29.656Z,2.64
2023-02-03T21:58:40.714Z,2.63
2023-02-03T22:01:19.630Z,2.63
2023-02-03T22:04:13.560Z,2.63
2023-02-03T22:06:49.890Z,2.63
2023-02-03T22:09:38.543Z,2.64
2023-02-03T22:12:13.660Z,2.66
2023-02-03T22:15:01.544Z,2.65
2023-02-03T22:17:42.936Z,2.64
2023-02-03T22:20:24.744Z,2.59
2023-02-03T22:23:06.440Z,2.57
2023-02-03T22:25:48.403Z,2.55
2023-02-03T22:28:36.600Z,2.54
2023-02-03T22:31:32.701Z,2.51
2023-02-03T22:34:22.997Z,2.48
2023-02-03T22:36:57.863Z,2.46
2023-02-03T22:39:45.653Z,2.48
2023-02-03T22:42:29.537Z,2.49
2023-02-03T22:45:26.258Z,2.49
2023-02-03T22:48:14.586Z,2.46
2023-02-03T22:50:56.735Z,2.46
2023-02-03T22:53:51.506Z,2.46
2023-02-03T22:56:39.546Z,2.46
2023-02-03T22:59:14.656Z,2.45
2023-02-03T23:02:03.734Z,2.46
2023-02-03T23:04:46.580Z,2.49
2023-02-03T23:07:41.802Z,2.51
2023-02-03T23:10:33.962Z,2.51
2023-02-03T23:13:09.652Z,2.51
2023-02-03T23:15:57.579Z,2.51
2023-02-03T23:18:32.650Z,2.56
2023-02-03T23:21:20.772Z,2.59
2023-02-03T23:23:55.697Z,2.60
2023-02-03T23:26:43.731Z,2.60
2023-02-03T23:29:18.659Z,2.61
2023-02-03T23:32:06.584Z,2.61
2023-02-03T23:35:00.664Z,2.60
2023-02-03T23:37:48.518Z,2.58
2023-02-03T23:40:24.693Z,2.56
2023-02-03T23:43:12.521Z,2.57
2023-02-03T23:45:47.848Z,2.58
2023-02-03T23:48:35.505Z,2.58
2023-02-03T23:51:10.676Z,2.57
2023-02-03T23:53:58.564Z,2.57
2023-02-03T23:56:34.796Z,2.58
2023-02-03T23:59:22.723Z,2.62
